This is the latest recevied weather packets stored in our database for station/object M0XDC. If no packets are shown the sender has not sent any weather packets the latest 10 day(s).
| Time | Temp. | Humidity | Pressure | Rain* | Wind** | Luminosity | Snow |
|---|---|---|---|---|---|---|---|
| 1787879923 | 16.11° C | 86% | 1005.1 hPa | 0 mm | - | - | - |
| 1787878123 | 16.11° C | 87% | 1004.9 hPa | 0 mm | - | - | - |
| 1787876323 | 16.67° C | 85% | 1004.8 hPa | 0 mm | - | - | - |
| 1787874523 | 17.22° C | 83% | 1004.9 hPa | 0 mm | - | - | - |
| 1787872723 | 17.78° C | 81% | 1005.2 hPa | 0 mm | - | - | - |
| 1787870923 | 17.78° C | 82% | 1005.3 hPa | 0 mm | - | - | - |
| 1787869123 | 17.78° C | 82% | 1005.4 hPa | 0 mm | - | - | - |
| 1787867323 | 18.33° C | 80% | 1006 hPa | 0 mm | - | - | - |
| 1787865523 | 18.33° C | 79% | 1006 hPa | 0 mm | - | - | - |
| 1787863723 | 18.33° C | 80% | 1005.9 hPa | 0 mm | - | - | - |
| 1787861922 | 18.89° C | 77% | 1005.7 hPa | 0 mm | - | - | - |
| 1787860123 | 19.44° C | 78% | 1005.7 hPa | 0 mm | - | - | - |
| 1787858323 | 20° C | 77% | 1005.7 hPa | 0 mm | - | - | - |
| 1787856523 | 20.56° C | 77% | 1005.4 hPa | 0 mm | - | - | - |
| 1787854723 | 21.11° C | 78% | 1005.3 hPa | 0 mm | - | - | - |
| 1787852923 | 21.67° C | 75% | 1005.4 hPa | 0 mm | - | - | - |
| 1787851123 | 21.67° C | 77% | 1005.6 hPa | 0 mm | - | - | - |
| 1787849323 | 22.22° C | 79% | 1005.5 hPa | 0 mm | - | - | - |
| 1787847523 | 22.22° C | 81% | 1005.5 hPa | 0 mm | - | - | - |
| 1787845723 | 21.67° C | 87% | 1006 hPa | 0 mm | - | - | - |
| 1787843923 | 20.56° C | 89% | 1006.1 hPa | 0 mm | - | - | - |
| 1787842123 | 20.56° C | 90% | 1006.5 hPa | 6.1 mm | - | - | - |
| 1787840322 | 20.56° C | 90% | 1006.3 hPa | 6.1 mm | - | - | - |
| 1787838522 | 21.67° C | 78% | 1006.4 hPa | 0 mm | - | - | - |
| 1787836723 | 22.22° C | 79% | 1006.3 hPa | 0 mm | - | - | - |
* Rain latest hour (hover to see other rain measurements)
** Current wind speed in m/s (hover to see current wind gust speed)